createdAt,value
2022-08-07T00:01:44.206Z,2.95
2022-08-07T00:04:09.555Z,2.60
2022-08-07T00:06:45.533Z,3.10
2022-08-07T00:09:22.647Z,2.40
2022-08-07T00:11:55.861Z,2.47
2022-08-07T00:14:30.266Z,2.60
2022-08-07T00:16:59.274Z,2.40
2022-08-07T00:19:34.208Z,3.10
2022-08-07T00:22:24.837Z,3.20
2022-08-07T00:25:07.514Z,3.65
2022-08-07T00:27:53.534Z,3.55
2022-08-07T00:30:27.227Z,3.78
2022-08-07T00:32:59.350Z,3.97
2022-08-07T00:35:27.616Z,3.57
2022-08-07T00:37:57.641Z,3.78
2022-08-07T00:40:39.060Z,3.95
2022-08-07T00:43:09.838Z,3.80
2022-08-07T00:45:41.726Z,3.33
2022-08-07T00:48:13.252Z,3.20
2022-08-07T00:50:50.847Z,3.28
2022-08-07T00:53:20.344Z,2.75
2022-08-07T00:56:03.061Z,3.70
2022-08-07T00:58:31.073Z,3.15
2022-08-07T01:00:58.665Z,2.70
2022-08-07T01:03:55.766Z,2.80
2022-08-07T01:06:13.121Z,2.60
2022-08-07T01:08:43.125Z,2.63
2022-08-07T01:12:05.021Z,2.95
2022-08-07T01:14:05.095Z,2.50
2022-08-07T01:16:32.102Z,2.45
2022-08-07T01:18:58.954Z,2.97
2022-08-07T01:21:27.007Z,2.80
2022-08-07T01:23:57.127Z,2.88
2022-08-07T01:26:26.047Z,2.70
2022-08-07T01:28:54.087Z,2.97
2022-08-07T01:31:27.937Z,3.03
2022-08-07T01:34:08.828Z,2.45
2022-08-07T01:36:36.426Z,3.10
2022-08-07T01:39:09.944Z,2.87
2022-08-07T01:41:40.899Z,2.70
2022-08-07T01:44:21.766Z,3.03
2022-08-07T01:46:50.289Z,2.70
2022-08-07T01:49:16.971Z,3.67
2022-08-07T01:52:01.522Z,2.50
2022-08-07T01:54:36.765Z,3.22
2022-08-07T01:57:24.928Z,3.83
2022-08-07T02:00:01.009Z,3.63
2022-08-07T02:03:12.204Z,3.97
2022-08-07T02:05:53.696Z,3.83
2022-08-07T02:08:29.394Z,4.90
2022-08-07T02:10:59.588Z,4.20
2022-08-07T02:13:57.427Z,3.65
2022-08-07T02:16:28.384Z,4.60
2022-08-07T02:18:56.291Z,3.97
2022-08-07T02:21:24.365Z,3.95
2022-08-07T02:23:53.226Z,4.28
2022-08-07T02:26:32.809Z,3.63
2022-08-07T02:29:06.261Z,4.18
2022-08-07T02:31:41.087Z,4.03
2022-08-07T02:34:11.470Z,3.90
2022-08-07T02:36:46.012Z,4.13
2022-08-07T02:39:16.937Z,4.35
2022-08-07T02:42:02.945Z,4.18
2022-08-07T02:44:37.355Z,4.00
2022-08-07T02:47:19.231Z,4.15
2022-08-07T02:49:58.380Z,4.25
2022-08-07T02:52:38.686Z,4.28
2022-08-07T02:56:03.327Z,4.43
2022-08-07T02:58:19.276Z,4.57
2022-08-07T03:00:51.929Z,4.15
2022-08-07T03:03:22.506Z,3.63
2022-08-07T03:05:54.246Z,4.35
2022-08-07T03:08:26.717Z,4.47
2022-08-07T03:10:57.593Z,5.00
2022-08-07T03:13:25.434Z,3.83
2022-08-07T03:15:58.388Z,5.18
2022-08-07T03:18:34.705Z,4.38
2022-08-07T03:21:08.580Z,5.10
2022-08-07T03:24:20.820Z,3.70
2022-08-07T03:26:31.913Z,4.50
2022-08-07T03:29:01.996Z,4.53
2022-08-07T03:31:42.470Z,4.68
2022-08-07T03:34:18.727Z,4.22
2022-08-07T03:36:53.155Z,4.47
2022-08-07T03:39:58.969Z,5.03
2022-08-07T03:42:10.242Z,4.40
2022-08-07T03:44:38.639Z,4.93
2022-08-07T03:47:13.708Z,5.38
2022-08-07T03:49:52.022Z,4.73
2022-08-07T03:52:26.724Z,5.00
2022-08-07T03:55:06.519Z,4.38
2022-08-07T03:58:32.637Z,5.03
2022-08-07T04:00:30.669Z,5.22
2022-08-07T04:03:03.998Z,5.03
2022-08-07T04:05:41.056Z,4.85
2022-08-07T04:08:18.670Z,4.95
2022-08-07T04:10:53.845Z,4.22
2022-08-07T04:13:27.635Z,5.00
2022-08-07T04:15:54.775Z,5.43
2022-08-07T04:18:56.509Z,4.60
2022-08-07T04:21:08.267Z,4.90
2022-08-07T04:23:43.667Z,4.88
2022-08-07T04:26:22.943Z,5.00
2022-08-07T04:28:51.840Z,4.40
2022-08-07T04:31:20.097Z,4.88
2022-08-07T04:34:06.508Z,5.18
2022-08-07T04:36:44.014Z,4.28
2022-08-07T04:39:12.245Z,4.88
2022-08-07T04:41:39.028Z,4.67
2022-08-07T04:44:12.192Z,4.55
2022-08-07T04:47:04.980Z,4.47
2022-08-07T04:49:57.516Z,4.80
2022-08-07T04:52:52.250Z,5.10
2022-08-07T04:58:13.822Z,4.90
2022-08-07T04:59:09.189Z,4.78
2022-08-07T05:01:42.811Z,4.30
2022-08-07T05:04:17.917Z,4.90
2022-08-07T05:06:57.340Z,4.63
2022-08-07T05:09:45.998Z,4.37
2022-08-07T05:12:27.376Z,4.32
2022-08-07T05:15:23.553Z,4.95
2022-08-07T05:17:57.962Z,3.92
2022-08-07T05:20:33.704Z,3.65
2022-08-07T05:23:15.614Z,4.00
2022-08-07T05:26:10.726Z,4.70
2022-08-07T05:28:34.964Z,3.92
2022-08-07T05:31:03.793Z,3.95
2022-08-07T05:33:35.460Z,4.35
2022-08-07T05:36:06.936Z,4.13
2022-08-07T05:39:01.499Z,3.95
2022-08-07T05:41:27.105Z,4.43
2022-08-07T05:44:15.357Z,3.97
2022-08-07T05:46:43.453Z,4.10
2022-08-07T05:49:12.896Z,4.20
2022-08-07T05:51:46.510Z,4.22
2022-08-07T05:54:30.331Z,3.95
2022-08-07T05:56:58.960Z,3.65
2022-08-07T05:59:28.071Z,3.85
2022-08-07T06:01:58.388Z,3.93
2022-08-07T06:04:29.960Z,3.45
2022-08-07T06:07:03.770Z,3.38
2022-08-07T06:10:04.547Z,3.70
2022-08-07T06:12:20.978Z,3.40
2022-08-07T06:14:55.190Z,3.43
2022-08-07T06:17:37.545Z,3.35
2022-08-07T06:20:06.222Z,2.80
2022-08-07T06:22:42.214Z,2.83
2022-08-07T06:25:28.689Z,3.20
2022-08-07T06:28:06.165Z,2.50
2022-08-07T06:30:37.370Z,2.70
2022-08-07T06:33:09.835Z,2.75
2022-08-07T06:35:48.056Z,2.88
2022-08-07T06:38:30.385Z,2.55
2022-08-07T06:40:59.937Z,2.83
2022-08-07T06:43:39.773Z,2.88
2022-08-07T06:46:11.623Z,2.63
2022-08-07T06:48:41.964Z,3.38
2022-08-07T06:51:16.903Z,3.00
2022-08-07T06:55:28.725Z,2.77
2022-08-07T06:56:51.732Z,2.95
2022-08-07T07:00:13.187Z,2.90
2022-08-07T07:02:15.688Z,2.63
2022-08-07T07:05:02.858Z,2.30
2022-08-07T07:08:00.148Z,2.33
2022-08-07T07:10:21.339Z,2.53
2022-08-07T07:12:58.795Z,2.53
2022-08-07T07:15:35.787Z,2.25
2022-08-07T07:18:06.047Z,1.80
2022-08-07T07:20:55.821Z,1.43
2022-08-07T07:24:09.952Z,1.90
2022-08-07T07:26:32.362Z,1.70
2022-08-07T07:29:56.835Z,1.75
2022-08-07T07:32:03.459Z,1.60
2022-08-07T07:34:32.234Z,1.80
2022-08-07T07:37:14.549Z,1.80
2022-08-07T07:39:55.312Z,1.45
2022-08-07T07:42:33.257Z,2.00
2022-08-07T07:45:02.510Z,2.10
2022-08-07T07:47:30.377Z,2.37
2022-08-07T07:50:33.642Z,2.40
2022-08-07T07:53:20.476Z,2.05
2022-08-07T07:56:00.970Z,1.73
2022-08-07T07:58:40.220Z,2.10
2022-08-07T08:02:02.707Z,1.97
2022-08-07T08:04:11.087Z,1.90
2022-08-07T08:06:50.992Z,1.92
2022-08-07T08:09:22.706Z,1.67
2022-08-07T08:12:02.656Z,2.13
2022-08-07T08:14:36.650Z,1.67
2022-08-07T08:17:32.400Z,1.70
2022-08-07T08:20:18.574Z,1.90
2022-08-07T08:23:09.358Z,1.73
2022-08-07T08:25:58.214Z,1.67
2022-08-07T08:28:38.193Z,1.67
2022-08-07T08:31:15.847Z,2.22
2022-08-07T08:33:50.205Z,1.83
2022-08-07T08:36:30.124Z,1.63
2022-08-07T08:39:01.679Z,2.25
2022-08-07T08:41:57.919Z,1.47
2022-08-07T08:44:40.897Z,1.77
2022-08-07T08:47:25.904Z,1.33
2022-08-07T08:50:17.565Z,1.75
2022-08-07T08:53:19.703Z,2.13
2022-08-07T08:56:27.188Z,1.70
2022-08-07T08:58:59.736Z,1.42
2022-08-07T09:01:59.689Z,1.70
2022-08-07T09:04:31.691Z,1.95
2022-08-07T09:07:06.321Z,1.70
2022-08-07T09:09:57.139Z,1.43
2022-08-07T09:12:42.028Z,2.13
2022-08-07T09:16:25.687Z,1.70
2022-08-07T09:18:58.674Z,1.67
2022-08-07T09:21:58.055Z,1.67
2022-08-07T09:24:58.723Z,1.43
2022-08-07T09:27:20.608Z,1.67
2022-08-07T09:30:03.873Z,1.55
2022-08-07T09:32:33.357Z,1.50
2022-08-07T09:36:04.929Z,1.80
2022-08-07T09:38:10.403Z,1.43
2022-08-07T09:41:05.916Z,1.85
2022-08-07T09:44:06.470Z,2.10
2022-08-07T09:47:50.519Z,1.70
2022-08-07T09:50:18.657Z,1.55
2022-08-07T09:53:07.771Z,1.70
2022-08-07T09:56:34.017Z,1.50
2022-08-07T09:59:21.965Z,1.40
2022-08-07T10:02:29.648Z,1.77
2022-08-07T10:05:59.461Z,1.50
2022-08-07T10:08:30.786Z,1.57
2022-08-07T10:12:02.249Z,1.17
2022-08-07T10:14:31.287Z,1.77
2022-08-07T10:17:19.963Z,2.08
2022-08-07T10:20:21.895Z,1.50
2022-08-07T10:23:07.755Z,1.27
2022-08-07T10:25:57.966Z,1.70
2022-08-07T10:28:33.254Z,1.45
2022-08-07T10:31:38.830Z,1.52
2022-08-07T10:34:18.288Z,1.75
2022-08-07T10:36:58.709Z,1.30
2022-08-07T10:39:41.499Z,1.60
2022-08-07T10:42:40.752Z,1.60
2022-08-07T10:45:44.434Z,1.40
2022-08-07T10:48:24.775Z,2.00
2022-08-07T10:51:39.540Z,2.20
2022-08-07T10:54:39.220Z,2.00
2022-08-07T10:57:22.097Z,2.40
2022-08-07T11:00:39.423Z,1.98
2022-08-07T11:03:12.732Z,2.10
2022-08-07T11:05:52.575Z,1.23
2022-08-07T11:09:02.798Z,1.63
2022-08-07T11:11:43.368Z,2.30
2022-08-07T11:14:46.351Z,1.80
2022-08-07T11:17:23.327Z,1.85
2022-08-07T11:20:12.642Z,2.30
2022-08-07T11:23:02.788Z,1.90
2022-08-07T11:25:48.173Z,1.60
2022-08-07T11:28:20.235Z,1.25
2022-08-07T11:31:21.313Z,1.25
2022-08-07T11:34:00.261Z,1.80
2022-08-07T11:36:43.795Z,1.50
2022-08-07T11:39:23.282Z,1.25
2022-08-07T11:42:18.650Z,1.77
2022-08-07T11:44:58.142Z,1.70
2022-08-07T11:47:56.035Z,1.43
2022-08-07T11:50:57.661Z,1.70
2022-08-07T11:53:35.308Z,1.20
2022-08-07T11:56:26.965Z,1.40
2022-08-07T12:00:08.256Z,1.70
2022-08-07T12:02:02.923Z,1.30
2022-08-07T12:05:09.027Z,1.25
2022-08-07T12:07:53.402Z,1.70
2022-08-07T12:10:41.974Z,1.63
2022-08-07T12:13:37.315Z,2.03
2022-08-07T12:16:10.697Z,1.67
2022-08-07T12:19:21.592Z,1.45
2022-08-07T12:22:38.621Z,1.83
2022-08-07T12:26:21.540Z,2.08
2022-08-07T12:29:00.609Z,1.90
2022-08-07T12:31:53.209Z,1.63
2022-08-07T12:34:26.684Z,1.77
2022-08-07T12:36:56.409Z,1.88
2022-08-07T12:39:43.000Z,1.58
2022-08-07T12:42:13.415Z,1.90
2022-08-07T12:44:45.653Z,1.17
2022-08-07T12:47:43.935Z,1.80
2022-08-07T12:50:38.930Z,1.60
2022-08-07T12:54:24.320Z,1.50
2022-08-07T12:56:34.461Z,1.80
2022-08-07T12:59:05.076Z,1.23
2022-08-07T13:01:54.610Z,1.25
2022-08-07T13:05:01.005Z,1.52
2022-08-07T13:08:13.699Z,1.55
2022-08-07T13:10:59.423Z,1.48
2022-08-07T13:13:47.369Z,1.87
2022-08-07T13:16:27.655Z,1.58
2022-08-07T13:19:46.287Z,1.63
2022-08-07T13:22:30.955Z,1.90
2022-08-07T13:25:06.869Z,1.80
2022-08-07T13:28:12.531Z,1.63
2022-08-07T13:30:48.969Z,1.83
2022-08-07T13:34:30.946Z,1.92
2022-08-07T13:36:41.016Z,1.70
2022-08-07T13:40:33.849Z,1.98
2022-08-07T13:42:27.110Z,1.70
2022-08-07T13:46:11.610Z,2.15
2022-08-07T13:48:05.918Z,1.92
2022-08-07T13:50:33.798Z,1.80
2022-08-07T13:53:05.041Z,1.85
2022-08-07T13:55:36.887Z,2.00
2022-08-07T13:58:31.709Z,1.88
2022-08-07T14:01:10.766Z,1.67
2022-08-07T14:04:05.536Z,1.67
2022-08-07T14:06:38.364Z,1.75
2022-08-07T14:09:07.234Z,1.97
2022-08-07T14:11:53.949Z,1.90
2022-08-07T14:14:38.580Z,1.50
2022-08-07T14:17:13.013Z,1.70
2022-08-07T14:20:41.971Z,2.70
2022-08-07T14:22:51.603Z,1.90
2022-08-07T14:25:25.405Z,1.58
2022-08-07T14:28:31.167Z,1.77
2022-08-07T14:30:47.971Z,1.67
2022-08-07T14:33:22.345Z,2.10
2022-08-07T14:35:55.732Z,1.83
2022-08-07T14:38:30.927Z,1.60
2022-08-07T14:41:05.047Z,1.55
2022-08-07T14:43:57.455Z,1.90
2022-08-07T14:46:30.654Z,1.52
2022-08-07T14:49:00.352Z,1.80
2022-08-07T14:52:04.500Z,1.30
2022-08-07T14:54:35.913Z,1.60
2022-08-07T14:57:18.659Z,1.50
2022-08-07T15:00:03.172Z,1.25
2022-08-07T15:02:34.604Z,1.30
2022-08-07T15:05:02.996Z,1.50
2022-08-07T15:07:51.114Z,1.80
2022-08-07T15:10:25.057Z,1.63
2022-08-07T15:12:59.856Z,1.55
2022-08-07T15:18:41.715Z,1.40
2022-08-07T15:21:58.884Z,1.92
2022-08-07T15:25:15.252Z,1.80
2022-08-07T15:27:03.780Z,2.05
2022-08-07T15:30:09.567Z,1.53
2022-08-07T15:32:39.820Z,2.17
2022-08-07T15:36:01.691Z,1.80
2022-08-07T15:41:24.422Z,1.60
2022-08-07T15:44:04.895Z,1.73
2022-08-07T15:46:38.344Z,1.63
2022-08-07T15:49:13.209Z,1.58
2022-08-07T15:54:34.203Z,1.67
2022-08-07T15:57:02.854Z,1.40
2022-08-07T15:59:39.603Z,1.70
2022-08-07T16:02:23.681Z,1.75
2022-08-07T16:04:57.756Z,1.90
2022-08-07T16:08:29.104Z,2.38
2022-08-07T16:10:20.734Z,1.70
2022-08-07T16:13:18.045Z,1.92
2022-08-07T16:16:47.790Z,1.55
2022-08-07T16:19:16.167Z,1.55
2022-08-07T16:22:03.446Z,1.60
2022-08-07T16:24:59.782Z,1.70
2022-08-07T16:27:39.894Z,1.33
2022-08-07T16:30:29.595Z,1.15
2022-08-07T16:34:02.721Z,1.30
2022-08-07T16:36:07.626Z,1.60
2022-08-07T16:39:00.897Z,1.33
2022-08-07T16:41:41.746Z,1.50
2022-08-07T16:44:57.278Z,1.65
2022-08-07T16:48:02.631Z,1.40
2022-08-07T16:51:20.349Z,1.45
2022-08-07T16:54:05.990Z,1.60
2022-08-07T16:56:50.353Z,1.65
2022-08-07T16:59:46.344Z,1.70
2022-08-07T17:02:52.366Z,1.70
2022-08-07T17:06:22.448Z,1.70
2022-08-07T17:08:57.230Z,1.40
2022-08-07T17:12:04.139Z,1.80
2022-08-07T17:14:46.459Z,1.40
2022-08-07T17:17:44.004Z,1.45
2022-08-07T17:20:37.426Z,1.88
2022-08-07T17:23:22.579Z,2.07
2022-08-07T17:26:24.192Z,1.65
2022-08-07T17:30:12.396Z,1.55
2022-08-07T17:32:06.583Z,1.50
2022-08-07T17:35:33.137Z,1.60
2022-08-07T17:38:06.419Z,1.50
2022-08-07T17:42:00.831Z,1.80
2022-08-07T17:44:02.742Z,1.60
2022-08-07T17:46:37.501Z,1.90
2022-08-07T17:49:46.284Z,1.85
2022-08-07T17:52:36.949Z,1.60
2022-08-07T17:55:12.611Z,1.45
2022-08-07T17:57:58.939Z,1.75
2022-08-07T18:00:34.271Z,1.52
2022-08-07T18:03:28.742Z,1.70
2022-08-07T18:06:36.716Z,1.60
2022-08-07T18:09:05.706Z,1.67
2022-08-07T18:12:17.690Z,1.52
2022-08-07T18:14:38.301Z,1.50
2022-08-07T18:18:46.719Z,2.00
2022-08-07T18:21:07.069Z,1.73
2022-08-07T18:23:43.120Z,2.00
2022-08-07T18:26:18.143Z,1.90
2022-08-07T18:30:05.887Z,2.28
2022-08-07T18:32:33.730Z,1.65
2022-08-07T18:35:51.724Z,1.67
2022-08-07T18:38:58.810Z,1.50
2022-08-07T18:41:46.320Z,1.63
2022-08-07T18:44:50.755Z,1.70
2022-08-07T18:47:44.664Z,2.05
2022-08-07T18:50:46.732Z,1.70
2022-08-07T18:53:16.335Z,1.75
2022-08-07T18:55:57.295Z,1.83
2022-08-07T18:58:58.548Z,1.67
2022-08-07T19:02:36.616Z,2.22
2022-08-07T19:06:01.938Z,2.00
2022-08-07T19:08:28.979Z,1.70
2022-08-07T19:11:35.816Z,2.60
2022-08-07T19:14:08.026Z,2.40
2022-08-07T19:17:08.227Z,2.47
2022-08-07T19:19:58.445Z,1.90
2022-08-07T19:22:51.828Z,2.53
2022-08-07T19:26:21.710Z,2.05
2022-08-07T19:28:56.401Z,2.35
2022-08-07T19:31:37.142Z,1.98
2022-08-07T19:34:03.128Z,2.23
2022-08-07T19:36:34.401Z,2.58
2022-08-07T19:39:09.098Z,2.22
2022-08-07T19:42:05.500Z,2.22
2022-08-07T19:44:37.883Z,2.17
2022-08-07T19:47:11.507Z,2.10
2022-08-07T19:49:57.520Z,2.00
2022-08-07T19:52:28.127Z,3.05
2022-08-07T19:54:58.663Z,2.20
2022-08-07T19:58:04.424Z,2.80
2022-08-07T20:00:28.393Z,2.13
2022-08-07T20:03:34.075Z,2.00
2022-08-07T20:06:03.539Z,2.95
2022-08-07T20:08:37.640Z,2.50
2022-08-07T20:11:10.624Z,3.28
2022-08-07T20:13:46.358Z,2.00
2022-08-07T20:16:34.859Z,2.50
2022-08-07T20:19:10.570Z,2.30
2022-08-07T20:21:47.592Z,2.38
2022-08-07T20:24:28.772Z,2.50
2022-08-07T20:26:59.339Z,2.87
2022-08-07T20:29:47.950Z,2.97
2022-08-07T20:32:40.596Z,2.67
2022-08-07T20:35:17.792Z,2.30
2022-08-07T20:37:57.825Z,2.53
2022-08-07T20:40:32.143Z,2.53
2022-08-07T20:43:03.138Z,2.50
2022-08-07T20:46:28.848Z,2.70
2022-08-07T20:48:29.797Z,2.40
2022-08-07T20:51:00.155Z,2.65
2022-08-07T20:54:04.851Z,4.43
2022-08-07T20:56:16.510Z,2.40
2022-08-07T20:58:49.624Z,2.15
2022-08-07T21:01:21.774Z,2.95
2022-08-07T21:04:19.850Z,2.60
2022-08-07T21:06:53.716Z,3.07
2022-08-07T21:09:24.573Z,3.13
2022-08-07T21:11:57.617Z,2.72
2022-08-07T21:14:38.984Z,2.75
2022-08-07T21:18:02.995Z,2.42
2022-08-07T21:20:10.491Z,2.83
2022-08-07T21:22:53.467Z,2.50
2022-08-07T21:25:38.710Z,2.78
2022-08-07T21:28:47.549Z,3.03
2022-08-07T21:31:14.352Z,2.30
2022-08-07T21:33:49.309Z,2.87
2022-08-07T21:36:36.228Z,2.65
2022-08-07T21:39:46.591Z,3.00
2022-08-07T21:42:48.722Z,2.83
2022-08-07T21:46:09.686Z,3.13
2022-08-07T21:48:57.517Z,2.97
2022-08-07T21:51:27.229Z,3.38
2022-08-07T21:54:13.024Z,3.08
2022-08-07T21:56:50.633Z,3.50
2022-08-07T22:00:04.163Z,3.42
2022-08-07T22:02:46.545Z,3.50
2022-08-07T22:05:22.104Z,2.75
2022-08-07T22:08:10.510Z,4.65
2022-08-07T22:10:42.477Z,3.58
2022-08-07T22:13:14.363Z,4.60
2022-08-07T22:16:45.110Z,2.97
2022-08-07T22:18:43.150Z,4.60
2022-08-07T22:22:05.214Z,4.82
2022-08-07T22:24:32.663Z,4.38
2022-08-07T22:27:07.467Z,3.78
2022-08-07T22:29:48.127Z,3.83
2022-08-07T22:32:39.072Z,4.68
2022-08-07T22:35:11.341Z,3.55
2022-08-07T22:38:04.224Z,3.92
2022-08-07T22:41:03.540Z,4.53
2022-08-07T22:43:57.814Z,4.13
2022-08-07T22:47:04.359Z,4.32
2022-08-07T22:49:58.451Z,4.10
2022-08-07T22:52:47.740Z,3.92
2022-08-07T22:55:34.119Z,4.35
2022-08-07T22:58:06.899Z,3.83
2022-08-07T23:00:46.516Z,4.65
2022-08-07T23:03:58.151Z,4.72
2022-08-07T23:06:51.732Z,4.00
2022-08-07T23:10:05.147Z,4.30
2022-08-07T23:12:35.695Z,4.97
2022-08-07T23:16:04.367Z,3.92
2022-08-07T23:18:22.992Z,4.57
2022-08-07T23:21:23.377Z,4.10
2022-08-07T23:24:35.007Z,4.47
2022-08-07T23:27:34.047Z,4.37
2022-08-07T23:30:37.607Z,4.30
2022-08-07T23:34:21.550Z,4.20
2022-08-07T23:36:10.608Z,4.45
2022-08-07T23:39:01.870Z,4.15
2022-08-07T23:42:04.197Z,4.37
2022-08-07T23:44:32.479Z,5.22
2022-08-07T23:47:48.291Z,4.20
2022-08-07T23:50:28.300Z,4.43
2022-08-07T23:53:21.220Z,4.85
2022-08-07T23:56:14.569Z,4.30
2022-08-07T23:58:47.491Z,4.03
